createdAt,value
2022-08-12T00:04:52.863Z,44.68
2022-08-12T00:10:32.501Z,44.91
2022-08-12T00:16:12.152Z,44.83
2022-08-12T00:21:51.493Z,45.08
2022-08-12T00:27:44.137Z,45.00
2022-08-12T00:33:23.461Z,45.22
2022-08-12T00:39:06.631Z,45.35
2022-08-12T00:44:27.647Z,45.36
2022-08-12T00:49:50.260Z,45.51
2022-08-12T00:55:11.377Z,45.68
2022-08-12T01:00:32.655Z,45.80
2022-08-12T01:06:33.324Z,45.47
2022-08-12T01:11:55.311Z,45.63
2022-08-12T01:17:15.789Z,45.97
2022-08-12T01:23:02.719Z,46.23
2022-08-12T01:28:27.724Z,46.03
2022-08-12T01:34:33.338Z,46.36
2022-08-12T01:40:33.542Z,46.59
2022-08-12T01:45:45.908Z,46.56
2022-08-12T01:52:20.474Z,46.79
2022-08-12T01:57:58.109Z,47.15
2022-08-12T02:03:30.011Z,47.21
2022-08-12T02:09:18.477Z,47.32
2022-08-12T02:15:13.138Z,47.36
2022-08-12T02:20:51.981Z,47.25
2022-08-12T02:26:17.191Z,47.58
2022-08-12T02:31:39.598Z,47.65
2022-08-12T02:37:03.799Z,47.55
2022-08-12T02:42:29.100Z,47.67
2022-08-12T02:47:59.230Z,47.85
2022-08-12T02:53:22.966Z,47.74
2022-08-12T02:58:46.259Z,47.98
2022-08-12T03:04:20.291Z,48.01
2022-08-12T03:10:07.173Z,48.01
2022-08-12T03:15:37.151Z,48.05
2022-08-12T03:21:00.169Z,48.06
2022-08-12T03:26:24.579Z,48.34
2022-08-12T03:31:47.419Z,48.41
2022-08-12T03:37:11.126Z,48.31
2022-08-12T03:42:51.960Z,48.37
2022-08-12T03:48:33.439Z,48.61
2022-08-12T03:54:12.993Z,48.31
2022-08-12T03:59:52.123Z,48.81
2022-08-12T04:05:13.643Z,49.03
2022-08-12T04:11:00.849Z,49.36
2022-08-12T04:16:22.162Z,49.65
2022-08-12T04:22:02.135Z,49.83
2022-08-12T04:27:23.272Z,49.95
2022-08-12T04:32:44.685Z,49.82
2022-08-12T04:38:06.576Z,49.43
2022-08-12T04:44:01.591Z,49.44
2022-08-12T04:49:08.508Z,49.33
2022-08-12T04:54:29.623Z,49.15
2022-08-12T04:59:50.338Z,48.87
2022-08-12T05:05:19.345Z,48.89
2022-08-12T05:10:40.290Z,48.44
2022-08-12T05:16:05.749Z,47.90
2022-08-12T05:21:30.119Z,47.97
2022-08-12T05:26:52.004Z,47.88
2022-08-12T05:32:20.514Z,47.97
2022-08-12T05:37:41.245Z,47.75
2022-08-12T05:43:04.296Z,48.49
2022-08-12T05:48:25.339Z,47.94
2022-08-12T05:53:45.968Z,47.54
2022-08-12T05:59:07.771Z,47.92
2022-08-12T06:04:28.565Z,47.94
2022-08-12T06:09:49.083Z,47.58
2022-08-12T06:15:11.051Z,47.43
2022-08-12T06:20:34.294Z,47.06
2022-08-12T06:25:56.282Z,47.24
2022-08-12T06:31:27.316Z,47.21
2022-08-12T06:36:48.219Z,46.53
2022-08-12T06:42:32.803Z,46.41
2022-08-12T06:47:54.903Z,46.52
2022-08-12T06:53:16.439Z,46.39
2022-08-12T06:58:38.973Z,46.18
2022-08-12T07:04:14.269Z,46.04
2022-08-12T07:10:01.416Z,46.40
2022-08-12T07:15:25.404Z,45.61
2022-08-12T07:20:53.062Z,45.41
2022-08-12T07:26:19.761Z,45.64
2022-08-12T07:31:40.779Z,45.77
2022-08-12T07:37:01.641Z,45.12
2022-08-12T07:42:24.911Z,45.08
2022-08-12T07:47:48.402Z,45.24
2022-08-12T07:53:09.222Z,45.22
2022-08-12T07:58:29.992Z,45.42
2022-08-12T08:04:15.142Z,45.15
2022-08-12T08:09:39.377Z,45.01
2022-08-12T08:15:00.976Z,44.93
2022-08-12T08:20:24.921Z,45.35
2022-08-12T08:25:46.090Z,44.72
2022-08-12T08:31:06.971Z,44.63
2022-08-12T08:36:28.107Z,44.71
2022-08-12T08:42:19.026Z,44.68
2022-08-12T08:47:46.034Z,44.96
2022-08-12T08:53:08.811Z,44.59
2022-08-12T08:58:29.730Z,44.89
2022-08-12T09:05:08.116Z,45.25
2022-08-12T09:09:34.212Z,44.87
2022-08-12T09:15:16.854Z,45.08
2022-08-12T09:20:42.494Z,45.00
2022-08-12T09:26:04.908Z,44.95
2022-08-12T09:32:07.092Z,45.09
2022-08-12T09:37:19.233Z,45.22
2022-08-12T09:43:16.054Z,44.50
2022-08-12T09:48:40.112Z,44.90
2022-08-12T09:54:30.737Z,44.66
2022-08-12T10:00:17.091Z,44.57
2022-08-12T10:06:26.531Z,44.27
2022-08-12T10:12:09.797Z,44.26
2022-08-12T10:17:17.341Z,44.43
2022-08-12T10:22:41.204Z,44.74
2022-08-12T10:28:25.149Z,44.32
2022-08-12T10:34:05.088Z,44.24
2022-08-12T10:40:05.629Z,43.82
2022-08-12T10:45:18.223Z,43.89
2022-08-12T10:51:00.378Z,43.78
2022-08-12T10:56:23.272Z,44.04
2022-08-12T11:04:19.558Z,43.48
2022-08-12T11:08:36.639Z,42.76
2022-08-12T11:13:09.322Z,42.38
2022-08-12T11:18:30.801Z,42.01
2022-08-12T11:23:53.560Z,42.39
2022-08-12T11:29:22.632Z,41.99
2022-08-12T11:34:53.832Z,41.93
2022-08-12T11:40:15.462Z,42.24
2022-08-12T11:45:38.952Z,42.19
2022-08-12T11:50:59.917Z,42.29
2022-08-12T11:56:20.531Z,42.84
2022-08-12T12:02:01.267Z,42.45
2022-08-12T12:07:22.917Z,42.15
2022-08-12T12:13:03.900Z,42.84
2022-08-12T12:18:33.462Z,42.05
2022-08-12T12:23:54.463Z,42.38
2022-08-12T12:30:17.491Z,42.57
2022-08-12T12:35:13.520Z,42.55
2022-08-12T12:40:50.306Z,42.12
2022-08-12T12:46:11.303Z,42.21
2022-08-12T12:51:48.657Z,42.28
2022-08-12T12:57:14.609Z,41.52
2022-08-12T13:02:40.533Z,42.23
2022-08-12T13:08:03.772Z,42.02
2022-08-12T13:14:09.786Z,41.88
2022-08-12T13:19:05.541Z,42.00
2022-08-12T13:24:31.845Z,41.97
2022-08-12T13:29:54.488Z,42.08
2022-08-12T13:35:19.910Z,41.50
2022-08-12T13:40:58.547Z,41.61
2022-08-12T13:46:20.322Z,41.61
2022-08-12T13:51:42.116Z,41.78
2022-08-12T13:57:04.637Z,41.44
2022-08-12T14:02:32.403Z,41.43
2022-08-12T14:07:54.350Z,41.55
2022-08-12T14:14:03.742Z,41.66
2022-08-12T14:19:04.193Z,41.71
2022-08-12T14:24:27.104Z,41.76
2022-08-12T14:30:04.995Z,41.77
2022-08-12T14:35:29.126Z,41.89
2022-08-12T14:41:03.783Z,41.26
2022-08-12T14:46:27.809Z,41.21
2022-08-12T14:52:43.944Z,41.41
2022-08-12T14:57:35.830Z,41.59
2022-08-12T15:03:13.614Z,41.86
2022-08-12T15:08:41.547Z,41.86
2022-08-12T15:14:02.515Z,41.85
2022-08-12T15:20:28.742Z,41.92
2022-08-12T15:25:09.021Z,41.89
2022-08-12T15:30:31.184Z,41.60
2022-08-12T15:35:53.675Z,41.34
2022-08-12T15:41:16.251Z,41.24
2022-08-12T15:46:37.060Z,41.24
2022-08-12T15:51:58.693Z,41.19
2022-08-12T15:57:25.141Z,41.08
2022-08-12T16:02:50.379Z,41.21
2022-08-12T16:08:18.376Z,40.98
2022-08-12T16:13:40.875Z,40.68
2022-08-12T16:19:19.140Z,40.44
2022-08-12T16:24:46.042Z,40.66
2022-08-12T16:30:08.104Z,40.64
2022-08-12T16:35:29.116Z,40.44
2022-08-12T16:40:51.222Z,40.74
2022-08-12T16:46:32.504Z,40.60
2022-08-12T16:51:55.635Z,40.50
2022-08-12T16:57:17.378Z,40.51
2022-08-12T17:02:59.797Z,40.77
2022-08-12T17:08:29.046Z,40.80
2022-08-12T17:13:53.206Z,40.72
2022-08-12T17:19:17.023Z,40.54
2022-08-12T17:24:43.863Z,40.46
2022-08-12T17:30:13.529Z,40.95
2022-08-12T17:35:36.905Z,41.02
2022-08-12T17:40:58.190Z,40.83
2022-08-12T17:46:23.908Z,40.83
2022-08-12T17:52:02.879Z,41.03
2022-08-12T17:57:24.360Z,41.52
2022-08-12T18:02:49.060Z,41.55
2022-08-12T18:08:12.681Z,41.73
2022-08-12T18:13:42.642Z,42.16
2022-08-12T18:19:03.758Z,42.25
2022-08-12T18:24:29.584Z,42.32
2022-08-12T18:29:53.683Z,42.27
2022-08-12T18:35:16.084Z,42.57
2022-08-12T18:40:58.293Z,42.21
2022-08-12T18:46:20.438Z,42.74
2022-08-12T18:51:48.707Z,42.52
2022-08-12T18:57:16.255Z,42.56
2022-08-12T19:02:42.505Z,42.98
2022-08-12T19:08:05.497Z,42.54
2022-08-12T19:13:44.731Z,42.42
2022-08-12T19:19:10.587Z,42.75
2022-08-12T19:24:53.775Z,42.32
2022-08-12T19:30:41.528Z,42.44
2022-08-12T19:36:07.777Z,42.46
2022-08-12T19:42:00.921Z,42.65
2022-08-12T19:47:22.661Z,42.35
2022-08-12T19:52:43.494Z,42.58
2022-08-12T19:58:18.179Z,42.52
2022-08-12T20:03:41.335Z,42.68
2022-08-12T20:09:04.246Z,42.38
2022-08-12T20:14:26.431Z,42.36
2022-08-12T20:20:05.707Z,41.95
2022-08-12T20:25:52.584Z,42.36
2022-08-12T20:31:11.872Z,42.25
2022-08-12T20:36:40.693Z,42.41
2022-08-12T20:42:07.669Z,42.61
2022-08-12T20:47:46.372Z,42.94
2022-08-12T20:53:07.904Z,42.84
2022-08-12T20:58:39.117Z,42.90
2022-08-12T21:04:19.746Z,43.21
2022-08-12T21:09:45.537Z,43.47
2022-08-12T21:15:17.006Z,43.72
2022-08-12T21:20:39.724Z,44.02
2022-08-12T21:26:01.396Z,43.80
2022-08-12T21:32:37.205Z,43.83
2022-08-12T21:37:26.487Z,44.34
2022-08-12T21:42:47.371Z,44.17
2022-08-12T21:48:11.765Z,44.48
2022-08-12T21:54:07.558Z,44.67
2022-08-12T21:59:16.844Z,44.46
2022-08-12T22:04:56.021Z,44.71
2022-08-12T22:10:18.265Z,45.09
2022-08-12T22:15:52.622Z,45.26
2022-08-12T22:21:17.927Z,45.28
2022-08-12T22:26:38.480Z,45.14
2022-08-12T22:32:05.460Z,45.34
2022-08-12T22:37:32.356Z,45.59
2022-08-12T22:43:15.453Z,45.58
2022-08-12T22:48:36.352Z,45.82
2022-08-12T22:54:36.946Z,46.01
2022-08-12T22:59:56.142Z,45.77
2022-08-12T23:05:16.993Z,46.14
2022-08-12T23:10:37.645Z,45.92
2022-08-12T23:16:01.121Z,45.98
2022-08-12T23:21:22.226Z,46.19
2022-08-12T23:27:04.103Z,46.37
2022-08-12T23:32:35.808Z,46.27
2022-08-12T23:37:57.320Z,46.55
2022-08-12T23:43:19.599Z,46.72
2022-08-12T23:48:41.024Z,46.67
2022-08-12T23:54:10.136Z,46.79
2022-08-12T23:59:43.539Z,47.13
